createdAt,value
2019-01-25T00:01:50.604Z,22.40
2019-01-25T00:04:39.148Z,22.40
2019-01-25T00:07:09.022Z,22.40
2019-01-25T00:09:58.723Z,23.38
2019-01-25T00:12:47.926Z,24.18
2019-01-25T00:15:37.087Z,21.90
2019-01-25T00:18:26.038Z,23.45
2019-01-25T00:21:07.235Z,23.10
2019-01-25T00:23:48.154Z,23.98
2019-01-25T00:26:30.041Z,23.80
2019-01-25T00:29:11.229Z,22.80
2019-01-25T00:31:52.132Z,23.38
2019-01-25T00:34:33.795Z,23.12
2019-01-25T00:37:15.406Z,23.32
2019-01-25T00:39:56.132Z,21.85
2019-01-25T00:42:37.991Z,24.55
2019-01-25T00:45:19.032Z,23.67
2019-01-25T00:48:00.119Z,23.40
2019-01-25T00:50:40.708Z,22.05
2019-01-25T00:53:21.600Z,23.45
2019-01-25T00:56:03.179Z,22.60
2019-01-25T00:58:44.735Z,22.10
2019-01-25T01:01:27.051Z,23.25
2019-01-25T01:04:08.691Z,23.73
2019-01-25T01:06:50.234Z,22.35
2019-01-25T01:09:31.552Z,22.70
2019-01-25T01:12:12.952Z,22.80
2019-01-25T01:14:54.948Z,22.65
2019-01-25T01:17:36.366Z,23.60
2019-01-25T01:20:17.544Z,21.45
2019-01-25T01:22:58.455Z,22.65
2019-01-25T01:25:39.275Z,22.40
2019-01-25T01:28:21.135Z,22.48
2019-01-25T01:30:50.835Z,24.15
2019-01-25T01:33:39.351Z,23.77
2019-01-25T01:36:28.027Z,22.15
2019-01-25T01:39:16.855Z,22.98
2019-01-25T01:42:05.772Z,22.95
2019-01-25T01:44:55.218Z,23.22
2019-01-25T01:47:44.303Z,22.42
2019-01-25T01:50:33.159Z,22.82
2019-01-25T01:53:21.687Z,24.00
2019-01-25T01:56:10.591Z,22.80
2019-01-25T01:58:59.655Z,23.20
2019-01-25T02:01:48.436Z,22.87
2019-01-25T02:04:29.654Z,23.98
2019-01-25T02:07:10.319Z,23.80
2019-01-25T02:09:51.825Z,22.90
2019-01-25T02:12:33.532Z,24.63
2019-01-25T02:15:15.208Z,23.12
2019-01-25T02:17:56.793Z,22.82
2019-01-25T02:20:38.111Z,22.93
2019-01-25T02:23:19.310Z,23.70
2019-01-25T02:26:00.384Z,24.92
2019-01-25T02:28:41.855Z,23.22
2019-01-25T02:31:23.354Z,23.22
2019-01-25T02:34:05.136Z,24.10
2019-01-25T02:36:46.889Z,23.65
2019-01-25T02:39:28.583Z,22.98
2019-01-25T02:42:09.291Z,25.40
2019-01-25T02:44:50.788Z,25.23
2019-01-25T02:47:32.485Z,24.43
2019-01-25T02:50:14.360Z,26.68
2019-01-25T02:53:03.526Z,25.48
2019-01-25T02:55:39.276Z,24.90
2019-01-25T02:58:20.648Z,25.92
2019-01-25T03:01:01.864Z,24.92
2019-01-25T03:03:42.803Z,25.12
2019-01-25T03:09:25.817Z,24.30
2019-01-25T03:12:06.820Z,26.60
2019-01-25T03:14:36.924Z,24.95
2019-01-25T03:17:07.211Z,26.37
2019-01-25T03:19:37.253Z,24.20
2019-01-25T03:22:07.309Z,24.72
2019-01-25T03:24:37.339Z,25.05
2019-01-25T03:27:07.103Z,25.55
2019-01-25T03:29:55.995Z,25.50
2019-01-25T03:32:45.076Z,25.45
2019-01-25T03:35:34.171Z,25.92
2019-01-25T03:38:04.135Z,25.20
2019-01-25T03:40:55.111Z,26.07
2019-01-25T03:43:42.822Z,26.23
2019-01-25T03:46:32.003Z,24.77
2019-01-25T03:49:21.084Z,25.48
2019-01-25T03:52:10.165Z,27.00
2019-01-25T03:54:59.226Z,26.55
2019-01-25T03:57:47.627Z,27.55
2019-01-25T04:00:36.705Z,28.25
2019-01-25T04:03:25.671Z,25.82
2019-01-25T04:06:07.123Z,28.10
2019-01-25T04:08:48.913Z,27.67
2019-01-25T04:11:30.541Z,28.65
2019-01-25T04:14:00.277Z,28.60
2019-01-25T04:16:49.110Z,29.67
2019-01-25T04:19:38.434Z,28.65
2019-01-25T04:22:27.670Z,30.12
2019-01-25T04:25:17.528Z,30.30
2019-01-25T04:28:06.788Z,29.82
2019-01-25T04:30:55.677Z,29.27
2019-01-25T04:33:44.928Z,29.90
2019-01-25T04:36:33.772Z,30.97
2019-01-25T04:39:22.613Z,28.75
2019-01-25T04:42:11.684Z,30.80
2019-01-25T04:44:53.551Z,31.15
2019-01-25T04:47:35.267Z,27.62
2019-01-25T04:50:16.846Z,29.45
2019-01-25T04:52:57.740Z,29.65
2019-01-25T04:55:39.289Z,27.70
2019-01-25T04:58:20.341Z,29.48
2019-01-25T05:01:02.718Z,27.35
2019-01-25T05:03:44.153Z,28.05
2019-01-25T05:06:25.751Z,30.32
2019-01-25T05:09:06.997Z,30.37
2019-01-25T05:11:47.865Z,28.87
2019-01-25T05:14:31.252Z,28.47
2019-01-25T05:17:13.195Z,29.07
2019-01-25T05:19:43.220Z,29.85
2019-01-25T05:22:32.333Z,30.12
2019-01-25T05:25:22.623Z,29.75
2019-01-25T05:28:13.044Z,29.65
2019-01-25T05:31:08.945Z,30.37
2019-01-25T05:33:59.184Z,30.15
2019-01-25T05:36:48.163Z,29.35
2019-01-25T05:39:37.171Z,28.40
2019-01-25T05:42:25.673Z,29.20
2019-01-25T05:45:14.523Z,27.55
2019-01-25T05:48:03.606Z,28.70
2019-01-25T05:51:12.883Z,29.90
2019-01-25T05:54:02.036Z,29.42
2019-01-25T05:56:51.107Z,30.00
2019-01-25T05:59:39.867Z,29.12
2019-01-25T06:02:29.133Z,28.50
2019-01-25T06:05:18.311Z,28.00
2019-01-25T06:07:59.215Z,28.15
2019-01-25T06:10:40.404Z,28.00
2019-01-25T06:16:20.842Z,30.27
2019-01-25T06:19:02.002Z,27.90
2019-01-25T06:21:43.123Z,27.45
2019-01-25T06:24:13.114Z,28.07
2019-01-25T06:27:01.991Z,26.33
2019-01-25T06:29:50.475Z,26.05
2019-01-25T06:32:39.132Z,28.20
2019-01-25T06:35:28.232Z,27.30
2019-01-25T06:38:16.738Z,28.87
2019-01-25T06:41:05.516Z,26.73
2019-01-25T06:43:54.555Z,25.52
2019-01-25T06:46:43.339Z,27.07
2019-01-25T06:49:32.079Z,27.55
2019-01-25T06:52:20.886Z,26.75
2019-01-25T06:55:10.279Z,26.20
2019-01-25T06:58:17.555Z,26.95
2019-01-25T07:04:05.337Z,26.55
2019-01-25T07:06:54.630Z,26.25
2019-01-25T07:09:36.103Z,24.90
2019-01-25T07:12:17.616Z,22.85
2019-01-25T07:14:58.886Z,24.67
2019-01-25T07:17:40.160Z,26.17
2019-01-25T07:20:21.563Z,25.48
2019-01-25T07:23:02.705Z,24.70
2019-01-25T07:25:43.528Z,24.02
2019-01-25T07:28:24.782Z,24.32
2019-01-25T07:31:06.019Z,24.27
2019-01-25T07:39:47.616Z,21.57
2019-01-25T07:42:28.720Z,22.27
2019-01-25T07:45:09.921Z,22.02
2019-01-25T07:47:50.972Z,22.10
2019-01-25T07:50:32.922Z,21.97
2019-01-25T07:53:14.344Z,22.25
2019-01-25T07:55:56.422Z,20.82
2019-01-25T07:58:37.992Z,20.88
2019-01-25T08:01:19.440Z,23.10
2019-01-25T08:04:00.505Z,22.30
2019-01-25T08:06:41.768Z,22.52
2019-01-25T08:09:23.278Z,21.35
2019-01-25T08:12:07.569Z,22.93
2019-01-25T08:14:47.988Z,23.07
2019-01-25T08:17:29.656Z,19.23
2019-01-25T08:20:11.219Z,21.62
2019-01-25T08:22:53.205Z,21.80
2019-01-25T08:25:34.534Z,23.40
2019-01-25T08:28:16.042Z,22.55
2019-01-25T08:30:57.905Z,23.00
2019-01-25T08:33:38.736Z,21.95
2019-01-25T08:48:30.035Z,21.73
2019-01-25T08:54:10.216Z,22.42
2019-01-25T08:56:51.297Z,24.25
2019-01-25T08:59:32.859Z,22.62
2019-01-25T09:02:13.951Z,21.07
2019-01-25T09:04:54.983Z,22.75
2019-01-25T09:07:35.671Z,23.22
2019-01-25T09:10:16.905Z,24.63
2019-01-25T09:12:58.623Z,23.00
2019-01-25T09:15:29.246Z,24.87
2019-01-25T09:18:18.126Z,27.65
2019-01-25T09:21:06.655Z,29.32
2019-01-25T09:23:55.435Z,31.35
2019-01-25T09:26:44.225Z,25.68
2019-01-25T09:29:33.066Z,27.00
2019-01-25T09:32:21.928Z,27.42
2019-01-25T09:35:10.412Z,26.48
2019-01-25T09:37:59.579Z,27.27
2019-01-25T09:40:48.115Z,29.00
2019-01-25T09:43:37.055Z,27.17
2019-01-25T09:46:26.015Z,24.98
2019-01-25T09:49:14.929Z,32.10
2019-01-25T09:52:03.382Z,30.23
2019-01-25T09:54:52.584Z,24.07
2019-01-25T09:57:41.337Z,25.15
2019-01-25T10:00:49.020Z,28.00
2019-01-25T10:03:38.084Z,25.82
2019-01-25T10:06:27.206Z,26.48
2019-01-25T10:09:08.607Z,25.80
2019-01-25T10:11:50.049Z,25.27
2019-01-25T10:14:32.064Z,26.70
2019-01-25T10:17:13.849Z,26.55
2019-01-25T10:19:55.235Z,30.12
2019-01-25T10:22:36.739Z,27.90
2019-01-25T10:25:18.643Z,26.70
2019-01-25T10:27:59.892Z,25.50
2019-01-25T10:30:41.283Z,27.15
2019-01-25T10:33:23.262Z,27.58
2019-01-25T10:36:05.109Z,26.23
2019-01-25T10:38:46.816Z,26.90
2019-01-25T10:41:28.184Z,26.65
2019-01-25T10:44:09.064Z,28.20
2019-01-25T10:46:49.798Z,26.30
2019-01-25T10:49:30.884Z,26.35
2019-01-25T10:52:11.884Z,28.42
2019-01-25T10:54:52.942Z,26.90
2019-01-25T10:57:34.016Z,27.82
2019-01-25T11:00:15.616Z,27.15
2019-01-25T11:02:58.609Z,26.50
2019-01-25T11:05:40.508Z,26.82
2019-01-25T11:08:22.431Z,26.55
2019-01-25T11:11:03.976Z,26.30
2019-01-25T11:13:34.447Z,26.85
2019-01-25T11:16:23.666Z,26.55
2019-01-25T11:19:12.791Z,27.82
2019-01-25T11:22:01.405Z,27.93
2019-01-25T11:24:49.760Z,29.18
2019-01-25T11:27:38.900Z,27.60
2019-01-25T11:30:28.089Z,27.93
2019-01-25T11:33:17.048Z,30.57
2019-01-25T11:36:12.734Z,30.12
2019-01-25T11:39:01.591Z,28.02
2019-01-25T11:41:50.254Z,26.80
2019-01-25T11:44:20.274Z,29.52
2019-01-25T11:47:09.199Z,30.08
2019-01-25T11:49:57.981Z,28.92
2019-01-25T11:52:27.410Z,29.00
2019-01-25T11:55:16.715Z,28.35
2019-01-25T11:58:05.868Z,27.00
2019-01-25T12:00:54.976Z,27.95
2019-01-25T12:03:43.729Z,29.42
2019-01-25T12:06:32.532Z,28.52
2019-01-25T12:09:14.108Z,26.68
2019-01-25T12:11:55.163Z,26.62
2019-01-25T12:14:36.738Z,27.73
2019-01-25T12:17:17.792Z,27.65
2019-01-25T12:19:59.049Z,28.17
2019-01-25T12:22:40.423Z,28.98
2019-01-25T12:25:21.449Z,27.02
2019-01-25T12:28:05.344Z,26.27
2019-01-25T12:30:45.866Z,27.93
2019-01-25T12:33:27.915Z,27.52
2019-01-25T12:36:09.132Z,26.77
2019-01-25T12:38:50.448Z,28.32
2019-01-25T12:41:31.840Z,27.27
2019-01-25T12:44:12.554Z,27.02
2019-01-25T12:46:54.227Z,24.50
2019-01-25T12:49:35.600Z,26.77
2019-01-25T12:52:16.753Z,27.70
2019-01-25T12:54:57.533Z,27.80
2019-01-25T12:57:38.723Z,27.55
2019-01-25T13:00:49.149Z,29.30
2019-01-25T13:03:37.691Z,25.57
2019-01-25T13:06:26.797Z,28.25
2019-01-25T13:09:15.347Z,26.23
2019-01-25T13:12:04.094Z,25.75
2019-01-25T13:14:52.219Z,27.30
2019-01-25T13:17:40.180Z,25.88
2019-01-25T13:20:29.140Z,27.55
2019-01-25T13:23:17.604Z,25.85
2019-01-25T13:26:05.748Z,26.57
2019-01-25T13:28:35.854Z,26.00
2019-01-25T13:31:17.368Z,26.52
2019-01-25T13:37:11.843Z,25.62
2019-01-25T13:39:53.216Z,25.65
2019-01-25T13:42:34.343Z,25.27
2019-01-25T13:45:15.735Z,25.57
2019-01-25T13:47:56.809Z,26.20
2019-01-25T13:50:37.541Z,25.35
2019-01-25T13:53:18.442Z,24.80
2019-01-25T13:55:59.617Z,23.83
2019-01-25T13:58:40.983Z,26.10
2019-01-25T14:01:21.977Z,25.05
2019-01-25T14:04:03.580Z,28.07
2019-01-25T14:06:45.009Z,36.38
2019-01-25T14:09:25.957Z,81.00
2019-01-25T14:12:08.680Z,28.10
2019-01-25T14:14:50.201Z,31.68
2019-01-25T14:17:31.645Z,48.52
2019-01-25T14:20:13.036Z,27.85
2019-01-25T14:22:54.689Z,25.85
2019-01-25T14:25:35.498Z,44.55
2019-01-25T14:28:17.170Z,57.10
2019-01-25T14:30:58.790Z,39.78
2019-01-25T14:33:40.520Z,31.20
2019-01-25T14:36:21.583Z,26.10
2019-01-25T14:39:02.673Z,24.00
2019-01-25T14:41:44.055Z,32.05
2019-01-25T14:44:25.408Z,25.85
2019-01-25T14:47:07.094Z,26.07
2019-01-25T14:49:48.704Z,25.45
2019-01-25T14:52:29.827Z,29.67
2019-01-25T14:55:10.664Z,24.20
2019-01-25T14:57:52.103Z,25.80
2019-01-25T15:00:32.954Z,24.55
2019-01-25T15:03:14.039Z,26.07
2019-01-25T15:05:54.892Z,27.15
2019-01-25T15:08:36.731Z,26.55
2019-01-25T15:11:19.573Z,22.82
2019-01-25T15:14:02.371Z,24.77
2019-01-25T15:16:43.728Z,21.95
2019-01-25T15:19:25.364Z,20.75
2019-01-25T15:22:06.783Z,20.02
2019-01-25T15:24:48.152Z,21.70
2019-01-25T15:27:29.541Z,21.68
2019-01-25T15:30:11.053Z,21.60
2019-01-25T15:32:52.699Z,20.25
2019-01-25T15:35:34.375Z,20.25
2019-01-25T15:38:15.669Z,20.20
2019-01-25T15:40:56.712Z,21.48
2019-01-25T15:43:26.748Z,22.45
2019-01-25T15:46:15.563Z,21.35
2019-01-25T15:49:04.691Z,22.40
2019-01-25T15:51:53.331Z,23.47
2019-01-25T15:54:42.563Z,21.30
2019-01-25T15:57:31.411Z,21.65
2019-01-25T16:00:21.258Z,19.23
2019-01-25T16:03:10.256Z,21.48
2019-01-25T16:05:59.022Z,21.12
2019-01-25T16:08:48.403Z,21.42
2019-01-25T16:11:37.504Z,20.95
2019-01-25T16:14:18.619Z,20.88
2019-01-25T16:16:59.468Z,21.50
2019-01-25T16:19:41.046Z,21.37
2019-01-25T16:22:22.628Z,23.77
2019-01-25T16:25:04.364Z,22.42
2019-01-25T16:27:46.401Z,21.33
2019-01-25T16:30:27.707Z,20.52
2019-01-25T16:33:09.240Z,20.05
2019-01-25T16:35:51.052Z,20.80
2019-01-25T16:38:32.517Z,21.05
2019-01-25T16:41:02.212Z,20.30
2019-01-25T16:43:32.351Z,21.40
2019-01-25T16:46:20.887Z,45.40
2019-01-25T16:49:09.972Z,45.50
2019-01-25T16:51:59.224Z,21.33
2019-01-25T16:54:48.480Z,21.35
2019-01-25T16:57:36.940Z,25.40
2019-01-25T17:00:30.137Z,24.00
2019-01-25T17:03:19.107Z,19.42
2019-01-25T17:06:08.203Z,19.57
2019-01-25T17:08:38.731Z,19.80
2019-01-25T17:11:19.917Z,20.62
2019-01-25T17:14:01.532Z,21.12
2019-01-25T17:19:24.777Z,19.48
2019-01-25T17:22:06.155Z,18.87
2019-01-25T17:24:47.400Z,19.20
2019-01-25T17:27:28.950Z,18.90
2019-01-25T17:30:10.405Z,19.30
2019-01-25T17:32:51.847Z,21.97
2019-01-25T17:35:32.968Z,19.77
2019-01-25T17:38:13.795Z,19.85
2019-01-25T17:40:55.409Z,19.17
2019-01-25T17:43:37.489Z,20.68
2019-01-25T17:46:18.768Z,19.55
2019-01-25T17:49:00.273Z,18.95
2019-01-25T17:51:30.472Z,20.55
2019-01-25T17:54:19.562Z,19.85
2019-01-25T17:57:08.120Z,17.37
2019-01-25T17:59:56.922Z,19.30
2019-01-25T18:02:26.734Z,19.00
2019-01-25T18:05:16.161Z,18.42
2019-01-25T18:08:05.154Z,19.27
2019-01-25T18:10:54.536Z,19.02
2019-01-25T18:13:36.031Z,21.60
2019-01-25T18:16:25.260Z,32.95
2019-01-25T18:19:14.522Z,21.00
2019-01-25T18:22:04.248Z,19.45
2019-01-25T18:24:53.407Z,19.75
2019-01-25T18:27:43.567Z,21.30
2019-01-25T18:30:55.825Z,19.85
2019-01-25T18:33:44.413Z,20.62
2019-01-25T18:36:33.276Z,27.15
2019-01-25T18:39:22.126Z,23.83
2019-01-25T18:42:11.308Z,20.95
2019-01-25T18:45:00.325Z,20.72
2019-01-25T18:47:49.335Z,19.50
2019-01-25T18:50:38.529Z,18.60
2019-01-25T18:53:27.407Z,19.67
2019-01-25T18:55:57.707Z,19.20
2019-01-25T18:58:46.796Z,19.65
2019-01-25T19:01:35.777Z,17.60
2019-01-25T19:04:24.711Z,17.65
2019-01-25T19:07:13.992Z,18.80
2019-01-25T19:10:02.646Z,17.35
2019-01-25T19:12:43.917Z,19.25
2019-01-25T19:15:15.782Z,19.12
2019-01-25T19:18:04.632Z,16.82
2019-01-25T19:20:53.675Z,16.97
2019-01-25T19:23:42.098Z,18.20
2019-01-25T19:26:31.160Z,16.57
2019-01-25T19:29:19.966Z,19.10
2019-01-25T19:32:08.890Z,15.03
2019-01-25T19:34:57.764Z,15.85
2019-01-25T19:37:47.118Z,17.20
2019-01-25T19:40:35.921Z,15.03
2019-01-25T19:43:24.875Z,16.32
2019-01-25T19:46:14.159Z,14.50
2019-01-25T19:49:02.726Z,14.87
2019-01-25T19:51:33.109Z,13.93
2019-01-25T19:54:23.127Z,15.05
2019-01-25T19:57:13.256Z,13.05
2019-01-25T20:00:03.419Z,13.30
2019-01-25T20:02:53.409Z,14.68
2019-01-25T20:05:43.370Z,13.40
2019-01-25T20:08:32.807Z,13.98
2019-01-25T20:11:22.446Z,13.25
2019-01-25T20:14:11.864Z,13.32
2019-01-25T20:17:01.059Z,13.75
2019-01-25T20:19:50.268Z,12.73
2019-01-25T20:22:39.058Z,13.40
2019-01-25T20:25:28.678Z,14.35
2019-01-25T20:28:18.484Z,12.68
2019-01-25T20:31:07.092Z,14.87
2019-01-25T20:33:56.154Z,14.25
2019-01-25T20:36:46.075Z,13.83
2019-01-25T20:42:12.148Z,14.03
2019-01-25T20:44:43.343Z,12.70
2019-01-25T20:47:32.692Z,12.55
2019-01-25T20:50:21.875Z,10.75
2019-01-25T20:53:12.379Z,10.98
2019-01-25T20:56:02.730Z,11.70
2019-01-25T20:58:52.211Z,12.13
2019-01-25T21:01:43.235Z,11.83
2019-01-25T21:04:31.933Z,11.73
2019-01-25T21:07:21.102Z,11.60
2019-01-25T21:09:52.493Z,11.40
2019-01-25T21:12:23.777Z,10.65
2019-01-25T21:15:14.184Z,10.00
2019-01-25T21:18:04.117Z,9.95
2019-01-25T21:20:52.904Z,12.53
2019-01-25T21:23:42.795Z,11.75
2019-01-25T21:26:31.818Z,12.78
2019-01-25T21:29:22.645Z,12.05
2019-01-25T21:32:12.755Z,11.70
2019-01-25T21:35:01.371Z,11.10
2019-01-25T21:37:31.470Z,12.13
2019-01-25T21:40:21.287Z,10.88
2019-01-25T21:43:10.318Z,11.03
2019-01-25T21:45:58.831Z,10.50
2019-01-25T21:48:47.683Z,9.50
2019-01-25T21:51:36.498Z,10.30
2019-01-25T21:54:25.615Z,9.13
2019-01-25T21:57:14.757Z,9.83
2019-01-25T22:00:04.323Z,9.50
2019-01-25T22:02:53.086Z,10.98
2019-01-25T22:05:42.375Z,11.55
2019-01-25T22:08:31.307Z,11.73
2019-01-25T22:11:20.177Z,9.30
2019-01-25T22:14:01.435Z,9.23
2019-01-25T22:16:42.923Z,9.65
2019-01-25T22:19:24.754Z,9.45
2019-01-25T22:22:05.991Z,9.50
2019-01-25T22:24:47.847Z,10.18
2019-01-25T22:27:29.348Z,10.80
2019-01-25T22:30:10.883Z,11.25
2019-01-25T22:32:52.372Z,9.65
2019-01-25T22:35:33.171Z,10.18
2019-01-25T22:38:15.101Z,11.00
2019-01-25T22:40:56.740Z,11.38
2019-01-25T22:43:38.189Z,11.38
2019-01-25T22:46:19.696Z,11.90
2019-01-25T22:49:00.613Z,10.32
2019-01-25T22:51:42.068Z,11.97
2019-01-25T22:54:23.489Z,10.08
2019-01-25T23:00:03.559Z,10.65
2019-01-25T23:05:57.650Z,8.80
2019-01-25T23:08:38.908Z,10.15
2019-01-25T23:11:19.836Z,9.63
2019-01-25T23:14:01.605Z,8.80
2019-01-25T23:16:43.359Z,10.48
2019-01-25T23:19:25.254Z,10.55
2019-01-25T23:22:07.036Z,11.08
2019-01-25T23:24:49.090Z,11.12
2019-01-25T23:27:30.703Z,9.68
2019-01-25T23:30:12.356Z,10.80
2019-01-25T23:36:06.599Z,10.08
2019-01-25T23:38:47.978Z,10.15
2019-01-25T23:41:28.743Z,10.82
2019-01-25T23:44:10.734Z,11.08
2019-01-25T23:46:52.339Z,9.73
2019-01-25T23:49:34.022Z,10.82
2019-01-25T23:52:15.032Z,10.32
2019-01-25T23:54:55.844Z,10.55
2019-01-25T23:57:37.741Z,10.78
